sensor_id;sensor_type;location;lat;lon;timestamp;P1;durP1;ratioP1;P2;durP2;ratioP2
18298;SDS011;9275;48.690;9.686;2024-03-02T00:01:45;21.17;;;4.93;;
18298;SDS011;9275;48.690;9.686;2024-03-02T00:06:51;14.43;;;6.00;;
18298;SDS011;9275;48.690;9.686;2024-03-02T00:11:57;18.10;;;5.07;;
18298;SDS011;9275;48.690;9.686;2024-03-02T00:17:03;29.97;;;6.67;;
18298;SDS011;9275;48.690;9.686;2024-03-02T00:22:08;17.83;;;5.10;;
18298;SDS011;9275;48.690;9.686;2024-03-02T00:27:12;14.17;;;5.17;;
18298;SDS011;9275;48.690;9.686;2024-03-02T00:32:20;11.43;;;4.37;;
18298;SDS011;9275;48.690;9.686;2024-03-02T00:37:24;40.07;;;5.90;;
18298;SDS011;9275;48.690;9.686;2024-03-02T00:42:29;17.67;;;4.43;;
18298;SDS011;9275;48.690;9.686;2024-03-02T00:47:38;19.77;;;5.23;;
18298;SDS011;9275;48.690;9.686;2024-03-02T00:52:43;32.80;;;4.97;;
18298;SDS011;9275;48.690;9.686;2024-03-02T00:57:50;20.90;;;5.17;;
18298;SDS011;9275;48.690;9.686;2024-03-02T01:02:56;98.07;;;9.60;;
18298;SDS011;9275;48.690;9.686;2024-03-02T01:08:01;14.13;;;4.53;;
18298;SDS011;9275;48.690;9.686;2024-03-02T01:13:05;19.33;;;5.57;;
18298;SDS011;9275;48.690;9.686;2024-03-02T01:18:11;10.77;;;3.70;;
18298;SDS011;9275;48.690;9.686;2024-03-02T01:23:16;12.27;;;4.50;;
18298;SDS011;9275;48.690;9.686;2024-03-02T01:28:21;32.07;;;6.87;;
18298;SDS011;9275;48.690;9.686;2024-03-02T01:33:27;24.33;;;6.20;;
18298;SDS011;9275;48.690;9.686;2024-03-02T01:38:32;21.53;;;5.47;;
18298;SDS011;9275;48.690;9.686;2024-03-02T01:43:37;52.13;;;6.80;;
18298;SDS011;9275;48.690;9.686;2024-03-02T01:48:44;30.87;;;5.30;;
18298;SDS011;9275;48.690;9.686;2024-03-02T01:53:50;102.50;;;9.30;;
18298;SDS011;9275;48.690;9.686;2024-03-02T01:58:54;20.73;;;4.23;;
18298;SDS011;9275;48.690;9.686;2024-03-02T02:04:00;75.97;;;7.93;;
18298;SDS011;9275;48.690;9.686;2024-03-02T02:09:05;80.10;;;5.67;;
18298;SDS011;9275;48.690;9.686;2024-03-02T02:14:10;81.60;;;6.47;;
18298;SDS011;9275;48.690;9.686;2024-03-02T02:19:16;114.93;;;7.57;;
18298;SDS011;9275;48.690;9.686;2024-03-02T02:24:22;62.77;;;5.23;;
18298;SDS011;9275;48.690;9.686;2024-03-02T02:29:27;19.63;;;3.83;;
18298;SDS011;9275;48.690;9.686;2024-03-02T02:34:31;65.10;;;6.03;;
18298;SDS011;9275;48.690;9.686;2024-03-02T02:39:37;39.57;;;5.70;;
18298;SDS011;9275;48.690;9.686;2024-03-02T02:44:42;13.20;;;3.10;;
18298;SDS011;9275;48.690;9.686;2024-03-02T02:49:46;27.30;;;3.80;;
18298;SDS011;9275;48.690;9.686;2024-03-02T02:54:52;25.10;;;5.10;;
18298;SDS011;9275;48.690;9.686;2024-03-02T02:59:57;47.30;;;4.83;;
18298;SDS011;9275;48.690;9.686;2024-03-02T03:05:01;14.83;;;3.37;;
18298;SDS011;9275;48.690;9.686;2024-03-02T03:10:08;19.60;;;3.87;;
18298;SDS011;9275;48.690;9.686;2024-03-02T03:15:14;11.23;;;3.80;;
18298;SDS011;9275;48.690;9.686;2024-03-02T03:20:19;45.13;;;5.57;;
18298;SDS011;9275;48.690;9.686;2024-03-02T03:25:26;69.40;;;6.87;;
18298;SDS011;9275;48.690;9.686;2024-03-02T03:30:31;44.63;;;5.27;;
18298;SDS011;9275;48.690;9.686;2024-03-02T03:35:36;23.43;;;4.47;;
18298;SDS011;9275;48.690;9.686;2024-03-02T03:40:42;38.93;;;4.83;;
18298;SDS011;9275;48.690;9.686;2024-03-02T03:45:48;20.40;;;3.97;;
18298;SDS011;9275;48.690;9.686;2024-03-02T03:50:52;7.63;;;3.40;;
18298;SDS011;9275;48.690;9.686;2024-03-02T03:55:58;39.30;;;5.63;;
18298;SDS011;9275;48.690;9.686;2024-03-02T04:01:03;87.93;;;7.60;;
18298;SDS011;9275;48.690;9.686;2024-03-02T04:06:07;37.97;;;4.93;;
18298;SDS011;9275;48.690;9.686;2024-03-02T04:11:13;40.93;;;4.77;;
18298;SDS011;9275;48.690;9.686;2024-03-02T04:16:19;39.33;;;4.60;;
18298;SDS011;9275;48.690;9.686;2024-03-02T04:21:23;40.20;;;5.10;;
18298;SDS011;9275;48.690;9.686;2024-03-02T04:26:29;112.53;;;8.53;;
18298;SDS011;9275;48.690;9.686;2024-03-02T04:31:34;35.73;;;4.90;;
18298;SDS011;9275;48.690;9.686;2024-03-02T04:36:38;103.80;;;7.03;;
18298;SDS011;9275;48.690;9.686;2024-03-02T04:41:45;80.43;;;7.57;;
18298;SDS011;9275;48.690;9.686;2024-03-02T04:46:50;30.83;;;4.60;;
18298;SDS011;9275;48.690;9.686;2024-03-02T04:51:54;93.77;;;6.83;;
18298;SDS011;9275;48.690;9.686;2024-03-02T04:57:00;81.10;;;6.27;;
18298;SDS011;9275;48.690;9.686;2024-03-02T05:02:05;74.27;;;6.23;;
18298;SDS011;9275;48.690;9.686;2024-03-02T05:07:10;27.47;;;4.23;;
18298;SDS011;9275;48.690;9.686;2024-03-02T05:12:16;129.37;;;7.63;;
18298;SDS011;9275;48.690;9.686;2024-03-02T05:17:34;39.07;;;4.80;;
18298;SDS011;9275;48.690;9.686;2024-03-02T05:22:39;114.43;;;8.03;;
18298;SDS011;9275;48.690;9.686;2024-03-02T05:27:45;28.57;;;3.67;;
18298;SDS011;9275;48.690;9.686;2024-03-02T05:32:50;58.60;;;5.50;;
18298;SDS011;9275;48.690;9.686;2024-03-02T05:37:54;65.93;;;5.27;;
18298;SDS011;9275;48.690;9.686;2024-03-02T05:43:00;29.47;;;4.30;;
18298;SDS011;9275;48.690;9.686;2024-03-02T05:48:05;51.70;;;6.00;;
18298;SDS011;9275;48.690;9.686;2024-03-02T05:53:11;154.47;;;10.47;;
18298;SDS011;9275;48.690;9.686;2024-03-02T05:58:19;78.70;;;6.63;;
18298;SDS011;9275;48.690;9.686;2024-03-02T06:03:34;21.60;;;4.47;;
18298;SDS011;9275;48.690;9.686;2024-03-02T06:08:39;19.67;;;4.00;;
18298;SDS011;9275;48.690;9.686;2024-03-02T06:13:45;38.50;;;5.27;;
18298;SDS011;9275;48.690;9.686;2024-03-02T06:18:50;26.77;;;5.37;;
18298;SDS011;9275;48.690;9.686;2024-03-02T06:23:56;108.83;;;8.60;;
18298;SDS011;9275;48.690;9.686;2024-03-02T06:29:04;24.40;;;4.17;;
18298;SDS011;9275;48.690;9.686;2024-03-02T06:34:09;6.87;;;3.17;;
18298;SDS011;9275;48.690;9.686;2024-03-02T06:39:14;227.07;;;14.20;;
18298;SDS011;9275;48.690;9.686;2024-03-02T06:44:20;135.57;;;11.13;;
18298;SDS011;9275;48.690;9.686;2024-03-02T06:49:24;48.37;;;6.23;;
18298;SDS011;9275;48.690;9.686;2024-03-02T06:54:29;33.83;;;5.30;;
18298;SDS011;9275;48.690;9.686;2024-03-02T06:59:35;91.57;;;7.33;;
18298;SDS011;9275;48.690;9.686;2024-03-02T07:04:39;211.77;;;14.57;;
18298;SDS011;9275;48.690;9.686;2024-03-02T07:09:44;80.40;;;7.63;;
18298;SDS011;9275;48.690;9.686;2024-03-02T07:14:50;414.40;;;21.53;;
18298;SDS011;9275;48.690;9.686;2024-03-02T07:20:13;27.70;;;5.33;;
18298;SDS011;9275;48.690;9.686;2024-03-02T07:25:17;28.80;;;5.77;;
18298;SDS011;9275;48.690;9.686;2024-03-02T07:30:26;27.30;;;6.13;;
18298;SDS011;9275;48.690;9.686;2024-03-02T07:35:34;23.33;;;5.30;;
18298;SDS011;9275;48.690;9.686;2024-03-02T07:40:39;121.97;;;9.70;;
18298;SDS011;9275;48.690;9.686;2024-03-02T07:45:45;124.00;;;9.67;;
18298;SDS011;9275;48.690;9.686;2024-03-02T07:50:49;33.97;;;6.70;;
18298;SDS011;9275;48.690;9.686;2024-03-02T07:55:54;52.80;;;7.67;;
18298;SDS011;9275;48.690;9.686;2024-03-02T08:01:05;24.60;;;6.20;;
18298;SDS011;9275;48.690;9.686;2024-03-02T08:06:10;61.43;;;8.90;;
18298;SDS011;9275;48.690;9.686;2024-03-02T08:11:14;17.17;;;5.57;;
18298;SDS011;9275;48.690;9.686;2024-03-02T08:16:21;25.40;;;6.00;;
18298;SDS011;9275;48.690;9.686;2024-03-02T08:21:27;43.40;;;8.30;;
18298;SDS011;9275;48.690;9.686;2024-03-02T08:26:33;116.60;;;11.13;;
18298;SDS011;9275;48.690;9.686;2024-03-02T08:31:39;18.07;;;6.37;;
18298;SDS011;9275;48.690;9.686;2024-03-02T08:36:43;17.13;;;6.07;;
18298;SDS011;9275;48.690;9.686;2024-03-02T08:41:48;20.90;;;6.93;;
18298;SDS011;9275;48.690;9.686;2024-03-02T08:46:55;60.47;;;8.90;;
18298;SDS011;9275;48.690;9.686;2024-03-02T08:52:00;10.47;;;4.90;;
18298;SDS011;9275;48.690;9.686;2024-03-02T08:57:05;14.97;;;5.87;;
18298;SDS011;9275;48.690;9.686;2024-03-02T09:02:11;13.73;;;6.20;;
18298;SDS011;9275;48.690;9.686;2024-03-02T09:07:16;12.53;;;5.80;;
18298;SDS011;9275;48.690;9.686;2024-03-02T09:12:20;14.13;;;5.60;;
18298;SDS011;9275;48.690;9.686;2024-03-02T09:17:26;29.57;;;6.57;;
18298;SDS011;9275;48.690;9.686;2024-03-02T09:22:31;14.27;;;5.97;;
18298;SDS011;9275;48.690;9.686;2024-03-02T09:27:36;16.50;;;6.40;;
18298;SDS011;9275;48.690;9.686;2024-03-02T09:32:42;14.50;;;6.60;;
18298;SDS011;9275;48.690;9.686;2024-03-02T09:37:50;14.60;;;6.47;;
18298;SDS011;9275;48.690;9.686;2024-03-02T09:42:55;13.10;;;6.10;;
18298;SDS011;9275;48.690;9.686;2024-03-02T09:48:02;123.37;;;11.70;;
18298;SDS011;9275;48.690;9.686;2024-03-02T09:53:07;13.33;;;6.63;;
18298;SDS011;9275;48.690;9.686;2024-03-02T09:58:13;16.27;;;6.90;;
18298;SDS011;9275;48.690;9.686;2024-03-02T10:03:19;12.93;;;6.27;;
18298;SDS011;9275;48.690;9.686;2024-03-02T10:08:26;29.17;;;6.63;;
18298;SDS011;9275;48.690;9.686;2024-03-02T10:13:46;16.07;;;5.83;;
18298;SDS011;9275;48.690;9.686;2024-03-02T10:18:52;13.10;;;6.77;;
18298;SDS011;9275;48.690;9.686;2024-03-02T10:24:06;11.30;;;5.37;;
18298;SDS011;9275;48.690;9.686;2024-03-02T10:29:11;12.03;;;5.63;;
18298;SDS011;9275;48.690;9.686;2024-03-02T10:34:18;10.57;;;5.23;;
18298;SDS011;9275;48.690;9.686;2024-03-02T10:39:22;12.13;;;5.30;;
18298;SDS011;9275;48.690;9.686;2024-03-02T10:44:30;12.30;;;5.20;;
18298;SDS011;9275;48.690;9.686;2024-03-02T10:49:37;8.67;;;4.40;;
18298;SDS011;9275;48.690;9.686;2024-03-02T10:54:45;8.90;;;4.30;;
18298;SDS011;9275;48.690;9.686;2024-03-02T10:59:52;9.07;;;4.30;;
18298;SDS011;9275;48.690;9.686;2024-03-02T11:05:01;8.60;;;4.03;;
18298;SDS011;9275;48.690;9.686;2024-03-02T11:10:11;6.63;;;3.80;;
18298;SDS011;9275;48.690;9.686;2024-03-02T11:15:17;10.40;;;4.70;;
18298;SDS011;9275;48.690;9.686;2024-03-02T11:20:24;8.57;;;4.57;;
18298;SDS011;9275;48.690;9.686;2024-03-02T11:25:31;8.27;;;4.20;;
18298;SDS011;9275;48.690;9.686;2024-03-02T11:30:51;9.60;;;3.77;;
18298;SDS011;9275;48.690;9.686;2024-03-02T11:35:57;8.80;;;4.10;;
18298;SDS011;9275;48.690;9.686;2024-03-02T11:41:02;9.53;;;3.53;;
18298;SDS011;9275;48.690;9.686;2024-03-02T11:46:11;5.33;;;3.13;;
18298;SDS011;9275;48.690;9.686;2024-03-02T11:51:17;5.40;;;3.30;;
18298;SDS011;9275;48.690;9.686;2024-03-02T11:56:21;4.30;;;2.73;;
18298;SDS011;9275;48.690;9.686;2024-03-02T12:01:27;4.37;;;2.77;;
18298;SDS011;9275;48.690;9.686;2024-03-02T12:06:35;5.70;;;2.63;;
18298;SDS011;9275;48.690;9.686;2024-03-02T12:11:41;3.77;;;2.70;;
18298;SDS011;9275;48.690;9.686;2024-03-02T12:16:46;23.70;;;3.93;;
18298;SDS011;9275;48.690;9.686;2024-03-02T12:21:53;4.10;;;2.60;;
18298;SDS011;9275;48.690;9.686;2024-03-02T12:26:58;4.13;;;2.37;;
18298;SDS011;9275;48.690;9.686;2024-03-02T12:32:03;3.97;;;2.50;;
18298;SDS011;9275;48.690;9.686;2024-03-02T12:37:13;6.13;;;2.63;;
18298;SDS011;9275;48.690;9.686;2024-03-02T12:42:18;4.40;;;2.53;;
18298;SDS011;9275;48.690;9.686;2024-03-02T12:47:22;4.63;;;2.80;;
18298;SDS011;9275;48.690;9.686;2024-03-02T12:52:28;3.70;;;2.30;;
18298;SDS011;9275;48.690;9.686;2024-03-02T12:57:34;4.63;;;2.50;;
18298;SDS011;9275;48.690;9.686;2024-03-02T13:02:42;3.33;;;2.10;;
18298;SDS011;9275;48.690;9.686;2024-03-02T13:07:48;4.67;;;2.40;;
18298;SDS011;9275;48.690;9.686;2024-03-02T13:12:52;5.73;;;2.70;;
18298;SDS011;9275;48.690;9.686;2024-03-02T13:17:58;4.97;;;2.70;;
18298;SDS011;9275;48.690;9.686;2024-03-02T13:23:05;7.83;;;2.80;;
18298;SDS011;9275;48.690;9.686;2024-03-02T13:28:10;7.67;;;2.90;;
18298;SDS011;9275;48.690;9.686;2024-03-02T13:33:15;4.97;;;2.63;;
18298;SDS011;9275;48.690;9.686;2024-03-02T13:38:26;7.33;;;3.30;;
18298;SDS011;9275;48.690;9.686;2024-03-02T13:43:30;8.60;;;3.60;;
18298;SDS011;9275;48.690;9.686;2024-03-02T13:48:37;6.07;;;3.20;;
18298;SDS011;9275;48.690;9.686;2024-03-02T13:53:43;6.83;;;3.30;;
18298;SDS011;9275;48.690;9.686;2024-03-02T13:58:47;6.17;;;3.27;;
18298;SDS011;9275;48.690;9.686;2024-03-02T14:03:52;6.87;;;3.43;;
18298;SDS011;9275;48.690;9.686;2024-03-02T14:08:59;8.77;;;4.30;;
18298;SDS011;9275;48.690;9.686;2024-03-02T14:14:04;11.03;;;4.27;;
18298;SDS011;9275;48.690;9.686;2024-03-02T14:19:08;10.07;;;4.27;;
18298;SDS011;9275;48.690;9.686;2024-03-02T14:24:16;11.50;;;4.47;;
18298;SDS011;9275;48.690;9.686;2024-03-02T14:29:20;9.83;;;4.93;;
18298;SDS011;9275;48.690;9.686;2024-03-02T14:34:25;16.60;;;5.87;;
18298;SDS011;9275;48.690;9.686;2024-03-02T14:39:32;8.90;;;5.00;;
18298;SDS011;9275;48.690;9.686;2024-03-02T14:44:37;9.13;;;4.70;;
18298;SDS011;9275;48.690;9.686;2024-03-02T14:49:42;11.80;;;5.20;;
18298;SDS011;9275;48.690;9.686;2024-03-02T14:54:49;11.07;;;5.27;;
18298;SDS011;9275;48.690;9.686;2024-03-02T14:59:54;12.47;;;5.17;;
18298;SDS011;9275;48.690;9.686;2024-03-02T15:04:58;10.50;;;5.27;;
18298;SDS011;9275;48.690;9.686;2024-03-02T15:10:05;12.43;;;5.73;;
18298;SDS011;9275;48.690;9.686;2024-03-02T15:15:11;12.93;;;6.10;;
18298;SDS011;9275;48.690;9.686;2024-03-02T15:20:16;13.70;;;6.53;;
18298;SDS011;9275;48.690;9.686;2024-03-02T15:25:22;13.53;;;6.23;;
18298;SDS011;9275;48.690;9.686;2024-03-02T15:30:26;12.80;;;5.77;;
18298;SDS011;9275;48.690;9.686;2024-03-02T15:35:31;15.07;;;6.87;;
18298;SDS011;9275;48.690;9.686;2024-03-02T15:40:37;14.33;;;6.20;;
18298;SDS011;9275;48.690;9.686;2024-03-02T15:45:42;15.60;;;6.80;;
18298;SDS011;9275;48.690;9.686;2024-03-02T15:50:47;13.70;;;6.50;;
18298;SDS011;9275;48.690;9.686;2024-03-02T15:55:54;51.90;;;8.23;;
18298;SDS011;9275;48.690;9.686;2024-03-02T16:00:58;18.07;;;7.40;;
18298;SDS011;9275;48.690;9.686;2024-03-02T16:06:03;19.60;;;9.37;;
18298;SDS011;9275;48.690;9.686;2024-03-02T16:11:09;14.63;;;7.10;;
18298;SDS011;9275;48.690;9.686;2024-03-02T16:16:14;29.00;;;7.73;;
18298;SDS011;9275;48.690;9.686;2024-03-02T16:21:19;18.27;;;7.83;;
18298;SDS011;9275;48.690;9.686;2024-03-02T16:26:29;54.30;;;10.33;;
18298;SDS011;9275;48.690;9.686;2024-03-02T16:31:33;15.90;;;7.30;;
18298;SDS011;9275;48.690;9.686;2024-03-02T16:36:38;17.70;;;7.50;;
18298;SDS011;9275;48.690;9.686;2024-03-02T16:41:46;15.53;;;6.93;;
18298;SDS011;9275;48.690;9.686;2024-03-02T16:46:51;14.67;;;6.30;;
18298;SDS011;9275;48.690;9.686;2024-03-02T16:51:55;24.07;;;8.47;;
18298;SDS011;9275;48.690;9.686;2024-03-02T16:57:02;18.03;;;7.20;;
18298;SDS011;9275;48.690;9.686;2024-03-02T17:02:07;22.70;;;8.70;;
18298;SDS011;9275;48.690;9.686;2024-03-02T17:07:12;35.03;;;10.07;;
18298;SDS011;9275;48.690;9.686;2024-03-02T17:12:18;41.67;;;9.47;;
18298;SDS011;9275;48.690;9.686;2024-03-02T17:17:23;16.03;;;7.80;;
18298;SDS011;9275;48.690;9.686;2024-03-02T17:22:28;30.77;;;7.97;;
18298;SDS011;9275;48.690;9.686;2024-03-02T17:27:35;23.30;;;8.43;;
18298;SDS011;9275;48.690;9.686;2024-03-02T17:32:39;14.53;;;6.83;;
18298;SDS011;9275;48.690;9.686;2024-03-02T17:37:44;349.07;;;20.57;;
18298;SDS011;9275;48.690;9.686;2024-03-02T17:42:50;22.33;;;7.60;;
18298;SDS011;9275;48.690;9.686;2024-03-02T17:47:55;20.40;;;8.40;;
18298;SDS011;9275;48.690;9.686;2024-03-02T17:52:59;49.40;;;10.10;;
18298;SDS011;9275;48.690;9.686;2024-03-02T17:58:06;24.50;;;7.37;;
18298;SDS011;9275;48.690;9.686;2024-03-02T18:03:11;16.10;;;7.53;;
18298;SDS011;9275;48.690;9.686;2024-03-02T18:08:15;23.83;;;8.60;;
18298;SDS011;9275;48.690;9.686;2024-03-02T18:13:22;22.13;;;8.90;;
18298;SDS011;9275;48.690;9.686;2024-03-02T18:18:26;19.10;;;8.57;;
18298;SDS011;9275;48.690;9.686;2024-03-02T18:23:31;20.90;;;9.33;;
18298;SDS011;9275;48.690;9.686;2024-03-02T18:28:37;18.80;;;8.60;;
18298;SDS011;9275;48.690;9.686;2024-03-02T18:33:42;18.30;;;8.70;;
18298;SDS011;9275;48.690;9.686;2024-03-02T18:38:47;23.10;;;8.73;;
18298;SDS011;9275;48.690;9.686;2024-03-02T18:43:53;20.20;;;9.13;;
18298;SDS011;9275;48.690;9.686;2024-03-02T18:48:58;30.83;;;10.07;;
18298;SDS011;9275;48.690;9.686;2024-03-02T18:54:03;29.37;;;10.77;;
18298;SDS011;9275;48.690;9.686;2024-03-02T18:59:09;47.93;;;12.63;;
18298;SDS011;9275;48.690;9.686;2024-03-02T19:04:13;22.20;;;9.83;;
18298;SDS011;9275;48.690;9.686;2024-03-02T19:09:18;24.13;;;9.80;;
18298;SDS011;9275;48.690;9.686;2024-03-02T19:14:24;41.37;;;11.77;;
18298;SDS011;9275;48.690;9.686;2024-03-02T19:19:29;109.63;;;14.80;;
18298;SDS011;9275;48.690;9.686;2024-03-02T19:24:35;97.80;;;15.07;;
18298;SDS011;9275;48.690;9.686;2024-03-02T19:29:41;85.20;;;16.03;;
18298;SDS011;9275;48.690;9.686;2024-03-02T19:34:45;54.07;;;12.67;;
18298;SDS011;9275;48.690;9.686;2024-03-02T19:39:50;78.50;;;13.97;;
18298;SDS011;9275;48.690;9.686;2024-03-02T19:44:57;39.00;;;12.47;;
18298;SDS011;9275;48.690;9.686;2024-03-02T19:50:01;38.87;;;12.63;;
18298;SDS011;9275;48.690;9.686;2024-03-02T19:55:08;96.33;;;14.00;;
18298;SDS011;9275;48.690;9.686;2024-03-02T20:00:14;29.03;;;11.20;;
18298;SDS011;9275;48.690;9.686;2024-03-02T20:05:19;32.83;;;11.17;;
18298;SDS011;9275;48.690;9.686;2024-03-02T20:10:24;32.20;;;11.77;;
18298;SDS011;9275;48.690;9.686;2024-03-02T20:15:30;35.03;;;12.63;;
18298;SDS011;9275;48.690;9.686;2024-03-02T20:20:35;135.20;;;15.90;;
18298;SDS011;9275;48.690;9.686;2024-03-02T20:25:40;90.33;;;15.10;;
18298;SDS011;9275;48.690;9.686;2024-03-02T20:30:46;115.30;;;13.77;;
18298;SDS011;9275;48.690;9.686;2024-03-02T20:35:51;116.00;;;18.57;;
18298;SDS011;9275;48.690;9.686;2024-03-02T20:40:56;33.17;;;12.13;;
18298;SDS011;9275;48.690;9.686;2024-03-02T20:46:02;38.70;;;12.67;;
18298;SDS011;9275;48.690;9.686;2024-03-02T20:51:09;29.17;;;10.80;;
18298;SDS011;9275;48.690;9.686;2024-03-02T20:56:14;213.37;;;21.60;;
18298;SDS011;9275;48.690;9.686;2024-03-02T21:01:20;38.10;;;12.93;;
18298;SDS011;9275;48.690;9.686;2024-03-02T21:06:25;78.73;;;16.40;;
18298;SDS011;9275;48.690;9.686;2024-03-02T21:11:30;30.87;;;12.43;;
18298;SDS011;9275;48.690;9.686;2024-03-02T21:16:36;39.87;;;12.93;;
18298;SDS011;9275;48.690;9.686;2024-03-02T21:21:42;29.17;;;11.10;;
18298;SDS011;9275;48.690;9.686;2024-03-02T21:26:47;55.77;;;12.47;;
18298;SDS011;9275;48.690;9.686;2024-03-02T21:31:53;36.70;;;12.00;;
18298;SDS011;9275;48.690;9.686;2024-03-02T21:36:58;141.67;;;16.53;;
18298;SDS011;9275;48.690;9.686;2024-03-02T21:42:04;92.50;;;16.13;;
18298;SDS011;9275;48.690;9.686;2024-03-02T21:47:10;35.30;;;11.20;;
18298;SDS011;9275;48.690;9.686;2024-03-02T21:52:15;60.07;;;13.67;;
18298;SDS011;9275;48.690;9.686;2024-03-02T21:57:19;47.50;;;12.53;;
18298;SDS011;9275;48.690;9.686;2024-03-02T22:02:26;29.93;;;11.13;;
18298;SDS011;9275;48.690;9.686;2024-03-02T22:07:30;53.27;;;12.37;;
18298;SDS011;9275;48.690;9.686;2024-03-02T22:12:35;43.30;;;12.47;;
18298;SDS011;9275;48.690;9.686;2024-03-02T22:17:41;17.07;;;7.97;;
18298;SDS011;9275;48.690;9.686;2024-03-02T22:22:46;33.37;;;10.13;;
18298;SDS011;9275;48.690;9.686;2024-03-02T22:27:50;22.83;;;8.43;;
18298;SDS011;9275;48.690;9.686;2024-03-02T22:32:59;37.27;;;10.57;;
18298;SDS011;9275;48.690;9.686;2024-03-02T22:38:03;18.23;;;8.20;;
18298;SDS011;9275;48.690;9.686;2024-03-02T22:43:08;27.37;;;9.90;;
18298;SDS011;9275;48.690;9.686;2024-03-02T22:48:14;36.77;;;10.97;;
18298;SDS011;9275;48.690;9.686;2024-03-02T22:53:18;24.17;;;9.63;;
18298;SDS011;9275;48.690;9.686;2024-03-02T22:58:22;20.07;;;8.23;;
18298;SDS011;9275;48.690;9.686;2024-03-02T23:03:29;18.33;;;8.00;;
18298;SDS011;9275;48.690;9.686;2024-03-02T23:08:34;190.67;;;16.33;;
18298;SDS011;9275;48.690;9.686;2024-03-02T23:13:39;31.70;;;10.30;;
18298;SDS011;9275;48.690;9.686;2024-03-02T23:18:45;21.97;;;8.70;;
18298;SDS011;9275;48.690;9.686;2024-03-02T23:23:51;35.50;;;10.57;;
18298;SDS011;9275;48.690;9.686;2024-03-02T23:28:56;19.47;;;8.47;;
18298;SDS011;9275;48.690;9.686;2024-03-02T23:34:02;57.03;;;11.80;;
18298;SDS011;9275;48.690;9.686;2024-03-02T23:39:10;49.23;;;11.30;;
18298;SDS011;9275;48.690;9.686;2024-03-02T23:44:35;30.97;;;9.27;;
18298;SDS011;9275;48.690;9.686;2024-03-02T23:49:41;28.20;;;9.60;;
18298;SDS011;9275;48.690;9.686;2024-03-02T23:54:46;20.50;;;7.87;;
18298;SDS011;9275;48.690;9.686;2024-03-02T23:59:51;42.43;;;8.23;;
